createdAt,value
2017-08-01T00:00:55.355Z,2.80
2017-08-01T00:03:21.636Z,2.60
2017-08-01T00:05:47.928Z,3.30
2017-08-01T00:08:14.935Z,3.00
2017-08-01T00:10:41.193Z,3.17
2017-08-01T00:13:07.473Z,2.80
2017-08-01T00:15:33.747Z,2.60
2017-08-01T00:18:00.024Z,2.83
2017-08-01T00:20:26.307Z,2.67
2017-08-01T00:22:52.557Z,2.50
2017-08-01T00:25:18.842Z,3.10
2017-08-01T00:27:45.138Z,3.40
2017-08-01T00:30:11.434Z,3.20
2017-08-01T00:32:37.731Z,2.60
2017-08-01T00:35:04.024Z,3.10
2017-08-01T00:37:30.314Z,3.10
2017-08-01T00:39:56.581Z,3.00
2017-08-01T00:42:22.856Z,2.80
2017-08-01T00:44:49.139Z,3.17
2017-08-01T00:47:15.421Z,2.97
2017-08-01T00:49:41.681Z,2.40
2017-08-01T00:52:07.970Z,2.87
2017-08-01T00:54:34.245Z,2.73
2017-08-01T00:57:00.534Z,2.87
2017-08-01T00:59:26.830Z,2.80
2017-08-01T01:01:53.148Z,2.83
2017-08-01T01:04:19.419Z,2.77
2017-08-01T01:06:45.704Z,2.77
2017-08-01T01:09:12.019Z,2.77
2017-08-01T01:11:39.292Z,2.77
2017-08-01T01:14:05.574Z,3.20
2017-08-01T01:16:31.857Z,3.60
2017-08-01T01:18:58.114Z,3.57
2017-08-01T01:21:24.384Z,4.10
2017-08-01T01:23:51.405Z,3.00
2017-08-01T01:26:17.669Z,2.87
2017-08-01T01:28:43.942Z,3.67
2017-08-01T01:31:10.248Z,4.03
2017-08-01T01:33:36.571Z,3.17
2017-08-01T01:36:02.861Z,3.40
2017-08-01T01:38:29.157Z,3.30
2017-08-01T01:40:55.440Z,3.50
2017-08-01T01:43:21.752Z,4.17
2017-08-01T01:45:48.789Z,4.80
2017-08-01T01:48:15.855Z,4.40
2017-08-01T01:50:42.143Z,3.60
2017-08-01T01:53:08.436Z,3.90
2017-08-01T01:55:34.716Z,3.57
2017-08-01T01:58:01.008Z,3.80
2017-08-01T02:00:27.324Z,4.07
2017-08-01T02:02:53.597Z,3.83
2017-08-01T02:05:19.888Z,4.00
2017-08-01T02:07:46.391Z,3.50
2017-08-01T02:10:12.750Z,3.50
2017-08-01T02:12:39.047Z,3.57
2017-08-01T02:15:05.334Z,3.63
2017-08-01T02:17:31.622Z,3.80
2017-08-01T02:19:57.992Z,3.87
2017-08-01T02:22:24.292Z,3.50
2017-08-01T02:24:50.629Z,3.53
2017-08-01T02:27:16.909Z,3.50
2017-08-01T02:29:43.209Z,3.43
2017-08-01T02:32:09.506Z,2.93
2017-08-01T02:34:35.833Z,3.30
2017-08-01T02:37:02.156Z,3.50
2017-08-01T02:39:29.198Z,3.30
2017-08-01T02:41:56.218Z,3.00
2017-08-01T02:44:22.501Z,3.43
2017-08-01T02:46:48.783Z,3.60
2017-08-01T02:49:15.065Z,3.20
2017-08-01T02:51:41.343Z,3.97
2017-08-01T02:54:07.629Z,3.60
2017-08-01T02:56:33.920Z,3.97
2017-08-01T02:59:00.199Z,3.20
2017-08-01T03:01:26.503Z,3.77
2017-08-01T03:03:52.816Z,3.70
2017-08-01T03:06:19.093Z,3.73
2017-08-01T03:08:45.389Z,3.90
2017-08-01T03:11:11.638Z,4.37
2017-08-01T03:13:37.925Z,3.33
2017-08-01T03:16:04.929Z,3.63
2017-08-01T03:18:31.227Z,3.70
2017-08-01T03:20:57.513Z,4.20
2017-08-01T03:23:23.833Z,3.70
2017-08-01T03:25:50.100Z,3.87
2017-08-01T03:28:17.116Z,3.90
2017-08-01T03:30:43.389Z,4.20
2017-08-01T03:33:09.659Z,3.60
2017-08-01T03:35:35.947Z,4.00
2017-08-01T03:38:02.208Z,3.80
2017-08-01T03:40:28.506Z,3.80
2017-08-01T03:42:54.751Z,3.93
2017-08-01T03:45:21.049Z,3.80
2017-08-01T03:47:47.298Z,4.00
2017-08-01T03:50:13.632Z,3.37
2017-08-01T03:52:39.898Z,3.40
2017-08-01T03:55:07.211Z,3.40
2017-08-01T03:57:33.476Z,3.17
2017-08-01T03:59:59.776Z,3.03
2017-08-01T04:02:26.026Z,3.07
2017-08-01T04:04:52.322Z,3.27
2017-08-01T04:07:18.604Z,2.87
2017-08-01T04:09:44.869Z,2.90
2017-08-01T04:12:11.180Z,3.00
2017-08-01T04:14:37.449Z,3.43
2017-08-01T04:17:03.731Z,3.10
2017-08-01T04:19:29.995Z,2.93
2017-08-01T04:21:56.281Z,3.30
2017-08-01T04:24:22.570Z,2.80
2017-08-01T04:26:48.853Z,3.30
2017-08-01T04:29:15.117Z,3.03
2017-08-01T04:31:41.393Z,2.80
2017-08-01T04:34:07.701Z,3.10
2017-08-01T04:36:33.977Z,3.00
2017-08-01T04:39:01.020Z,3.13
2017-08-01T04:41:27.260Z,3.10
2017-08-01T04:43:54.280Z,3.80
2017-08-01T04:46:20.565Z,4.03
2017-08-01T04:48:46.868Z,3.90
2017-08-01T04:51:13.404Z,3.83
2017-08-01T04:53:40.451Z,3.70
2017-08-01T04:56:06.721Z,3.20
2017-08-01T04:58:33.025Z,3.33
2017-08-01T05:00:59.299Z,3.30
2017-08-01T05:03:25.603Z,2.80
2017-08-01T05:05:51.878Z,3.40
2017-08-01T05:08:18.953Z,2.93
2017-08-01T05:10:45.276Z,3.20
2017-08-01T05:13:12.276Z,2.90
2017-08-01T05:15:38.557Z,2.77
2017-08-01T05:18:04.847Z,3.33
2017-08-01T05:20:31.904Z,2.80
2017-08-01T05:22:58.180Z,3.33
2017-08-01T05:25:24.455Z,2.80
2017-08-01T05:27:50.718Z,3.47
2017-08-01T05:30:17.008Z,3.27
2017-08-01T05:32:43.327Z,3.47
2017-08-01T05:35:09.648Z,3.50
2017-08-01T05:37:36.679Z,3.70
2017-08-01T05:40:03.772Z,4.17
2017-08-01T05:42:30.033Z,3.80
2017-08-01T05:44:56.323Z,3.50
2017-08-01T05:47:22.589Z,3.57
2017-08-01T05:49:48.891Z,3.80
2017-08-01T05:52:15.172Z,3.87
2017-08-01T05:54:41.448Z,3.90
2017-08-01T05:57:08.713Z,3.60
2017-08-01T05:59:34.992Z,3.90
2017-08-01T06:02:01.302Z,3.47
2017-08-01T06:04:27.616Z,3.90
2017-08-01T06:06:54.668Z,3.77
2017-08-01T06:09:20.970Z,3.93
2017-08-01T06:11:47.263Z,4.07
2017-08-01T06:14:13.636Z,4.10
2017-08-01T06:16:39.896Z,3.60
2017-08-01T06:19:06.193Z,3.67
2017-08-01T06:21:33.198Z,3.60
2017-08-01T06:23:59.517Z,3.70
2017-08-01T06:26:25.807Z,4.00
2017-08-01T06:28:52.126Z,3.93
2017-08-01T06:31:18.397Z,3.47
2017-08-01T06:33:44.701Z,4.03
2017-08-01T06:36:11.007Z,3.80
2017-08-01T06:38:37.287Z,3.10
2017-08-01T06:41:03.558Z,3.97
2017-08-01T06:43:29.870Z,3.33
2017-08-01T06:45:56.150Z,3.67
2017-08-01T06:48:23.229Z,3.90
2017-08-01T06:50:49.529Z,3.70
2017-08-01T06:53:15.792Z,4.03
2017-08-01T06:55:42.087Z,3.93
2017-08-01T06:58:08.406Z,3.97
2017-08-01T07:00:34.713Z,3.83
2017-08-01T07:03:00.986Z,3.70
2017-08-01T07:05:27.264Z,4.13
2017-08-01T07:07:53.540Z,4.07
2017-08-01T07:10:19.842Z,3.70
2017-08-01T07:12:46.112Z,3.80
2017-08-01T07:15:12.400Z,3.80
2017-08-01T07:17:38.681Z,3.33
2017-08-01T07:20:04.952Z,3.33
2017-08-01T07:22:31.263Z,3.30
2017-08-01T07:24:57.581Z,3.47
2017-08-01T07:27:23.893Z,3.40
2017-08-01T07:29:50.168Z,3.37
2017-08-01T07:32:16.493Z,3.40
2017-08-01T07:34:42.765Z,4.00
2017-08-01T07:37:09.040Z,3.77
2017-08-01T07:39:35.326Z,4.57
2017-08-01T07:42:01.593Z,3.70
2017-08-01T07:44:27.880Z,4.03
2017-08-01T07:46:54.170Z,4.47
2017-08-01T07:49:20.470Z,4.17
2017-08-01T07:51:46.762Z,3.90
2017-08-01T07:54:13.093Z,3.87
2017-08-01T07:56:40.224Z,4.00
2017-08-01T07:59:06.568Z,3.67
2017-08-01T08:01:32.850Z,3.50
2017-08-01T08:03:59.138Z,3.90
2017-08-01T08:06:25.415Z,3.73
2017-08-01T08:08:51.715Z,3.73
2017-08-01T08:11:18.016Z,3.90
2017-08-01T08:13:45.037Z,4.30
2017-08-01T08:16:11.325Z,3.90
2017-08-01T08:18:37.612Z,3.87
2017-08-01T08:21:04.671Z,4.33
2017-08-01T08:23:30.949Z,3.80
2017-08-01T08:25:57.244Z,3.80
2017-08-01T08:28:23.524Z,3.73
2017-08-01T08:30:49.818Z,3.80
2017-08-01T08:33:16.118Z,4.40
2017-08-01T08:35:50.166Z,4.40
2017-08-01T08:38:16.439Z,4.80
2017-08-01T08:40:43.473Z,3.90
2017-08-01T08:43:10.169Z,4.30
2017-08-01T08:45:36.446Z,5.07
2017-08-01T08:48:02.741Z,3.90
2017-08-01T08:50:29.019Z,4.30
2017-08-01T08:52:56.048Z,4.47
2017-08-01T08:55:22.339Z,4.70
2017-08-01T08:57:48.624Z,4.47
2017-08-01T09:00:14.910Z,4.13
2017-08-01T09:02:41.204Z,4.20
2017-08-01T09:05:08.217Z,4.33
2017-08-01T09:07:34.520Z,4.67
2017-08-01T09:10:00.788Z,4.13
2017-08-01T09:12:27.829Z,4.63
2017-08-01T09:14:54.868Z,4.60
2017-08-01T09:17:28.055Z,4.20
2017-08-01T09:19:54.374Z,5.07
2017-08-01T09:22:20.673Z,4.70
2017-08-01T09:24:46.964Z,4.43
2017-08-01T09:27:13.274Z,4.60
2017-08-01T09:29:39.560Z,5.17
2017-08-01T09:32:05.831Z,4.87
2017-08-01T09:34:32.144Z,5.00
2017-08-01T09:36:58.486Z,5.40
2017-08-01T09:39:24.787Z,6.33
2017-08-01T09:41:51.049Z,6.03
2017-08-01T09:44:17.379Z,5.57
2017-08-01T09:46:43.713Z,6.10
2017-08-01T09:49:10.049Z,5.73
2017-08-01T09:51:36.352Z,5.37
2017-08-01T09:54:02.639Z,5.10
2017-08-01T09:56:28.946Z,6.53
2017-08-01T09:58:55.992Z,4.57
2017-08-01T10:01:23.029Z,5.30
2017-08-01T10:03:49.300Z,4.37
2017-08-01T10:06:15.597Z,4.53
2017-08-01T10:08:42.637Z,5.00
2017-08-01T10:11:08.975Z,3.90
2017-08-01T10:13:36.016Z,4.37
2017-08-01T10:16:02.324Z,4.40
2017-08-01T10:18:28.631Z,4.10
2017-08-01T10:20:54.929Z,4.10
2017-08-01T10:23:21.969Z,4.00
2017-08-01T10:25:49.009Z,4.00
2017-08-01T10:28:15.338Z,4.33
2017-08-01T10:30:42.374Z,3.87
2017-08-01T10:33:08.652Z,3.80
2017-08-01T10:35:34.937Z,3.90
2017-08-01T10:38:02.001Z,4.30
2017-08-01T10:40:28.282Z,4.10
2017-08-01T10:42:54.723Z,3.40
2017-08-01T10:45:21.035Z,3.10
2017-08-01T10:47:47.344Z,3.07
2017-08-01T10:50:13.682Z,3.40
2017-08-01T10:52:39.965Z,4.77
2017-08-01T10:55:06.267Z,3.50
2017-08-01T10:57:34.153Z,3.10
2017-08-01T11:00:00.431Z,3.30
2017-08-01T11:02:26.721Z,3.37
2017-08-01T11:04:53.011Z,3.07
2017-08-01T11:07:19.282Z,3.60
2017-08-01T11:09:45.568Z,3.43
2017-08-01T11:12:11.858Z,3.03
2017-08-01T11:14:38.943Z,3.03
2017-08-01T11:17:05.236Z,2.60
2017-08-01T11:19:31.547Z,3.30
2017-08-01T11:21:58.594Z,3.30
2017-08-01T11:24:24.895Z,3.03
2017-08-01T11:26:51.206Z,3.10
2017-08-01T11:29:17.503Z,3.60
2017-08-01T11:31:43.794Z,4.00
2017-08-01T11:34:10.112Z,3.50
2017-08-01T11:36:36.414Z,3.57
2017-08-01T11:39:02.748Z,3.60
2017-08-01T11:41:29.079Z,3.13
2017-08-01T11:43:55.365Z,3.63
2017-08-01T11:46:22.718Z,2.90
2017-08-01T11:48:49.736Z,3.57
2017-08-01T11:51:16.005Z,3.73
2017-08-01T11:53:43.015Z,3.07
2017-08-01T11:56:09.385Z,2.90
2017-08-01T11:58:35.710Z,3.17
2017-08-01T12:01:02.768Z,3.27
2017-08-01T12:03:29.071Z,3.60
2017-08-01T12:05:56.100Z,3.13
2017-08-01T12:08:22.413Z,3.07
2017-08-01T12:10:48.699Z,3.50
2017-08-01T12:13:15.733Z,3.67
2017-08-01T12:15:42.849Z,3.60
2017-08-01T12:18:09.108Z,3.73
2017-08-01T12:20:35.393Z,3.30
2017-08-01T12:23:01.710Z,3.50
2017-08-01T12:25:28.041Z,3.67
2017-08-01T12:27:54.329Z,3.33
2017-08-01T12:30:20.665Z,3.90
2017-08-01T12:32:47.717Z,3.73
2017-08-01T12:35:14.056Z,3.37
2017-08-01T12:37:40.337Z,3.50
2017-08-01T12:40:06.637Z,4.00
2017-08-01T12:42:32.964Z,3.70
2017-08-01T12:44:59.246Z,4.00
2017-08-01T12:47:26.293Z,4.70
2017-08-01T12:49:53.314Z,4.17
2017-08-01T12:52:19.601Z,5.40
2017-08-01T12:54:46.740Z,3.80
2017-08-01T12:57:13.789Z,4.07
2017-08-01T12:59:40.077Z,3.60
2017-08-01T13:02:06.384Z,4.40
2017-08-01T13:04:32.644Z,4.13
2017-08-01T13:06:58.971Z,3.70
2017-08-01T13:09:25.260Z,3.63
2017-08-01T13:11:51.539Z,3.80
2017-08-01T13:14:17.862Z,4.40
2017-08-01T13:16:44.162Z,4.10
2017-08-01T13:19:10.476Z,3.60
2017-08-01T13:21:36.763Z,3.90
2017-08-01T13:24:03.803Z,4.07
2017-08-01T13:26:30.154Z,3.70
2017-08-01T13:28:57.187Z,3.77
2017-08-01T13:31:23.474Z,3.93
2017-08-01T13:33:56.728Z,3.70
2017-08-01T13:36:23.025Z,4.00
2017-08-01T13:38:49.313Z,4.10
2017-08-01T13:41:15.620Z,3.93
2017-08-01T13:43:41.915Z,4.33
2017-08-01T13:46:08.188Z,4.10
2017-08-01T13:48:34.477Z,4.20
2017-08-01T13:51:00.785Z,4.13
2017-08-01T13:53:27.066Z,3.63
2017-08-01T13:55:53.352Z,4.57
2017-08-01T13:58:19.634Z,3.90
2017-08-01T14:00:46.653Z,4.30
2017-08-01T14:03:13.701Z,3.70
2017-08-01T14:05:39.978Z,4.00
2017-08-01T14:08:06.276Z,4.03
2017-08-01T14:10:33.842Z,4.07
2017-08-01T14:13:00.143Z,4.57
2017-08-01T14:15:26.442Z,4.23
2017-08-01T14:17:52.731Z,4.60
2017-08-01T14:20:19.033Z,4.67
2017-08-01T14:22:45.333Z,5.00
2017-08-01T14:25:11.640Z,5.13
2017-08-01T14:27:37.952Z,4.23
2017-08-01T14:30:04.268Z,5.13
2017-08-01T14:32:31.304Z,6.00
2017-08-01T14:34:57.590Z,4.40
2017-08-01T14:37:23.904Z,4.80
2017-08-01T14:39:50.167Z,4.70
2017-08-01T14:42:16.455Z,4.80
2017-08-01T14:44:42.740Z,4.77
2017-08-01T14:47:09.041Z,4.73
2017-08-01T14:49:35.332Z,4.83
2017-08-01T14:52:01.630Z,5.00
2017-08-01T14:54:27.893Z,5.17
2017-08-01T14:56:54.172Z,4.80
2017-08-01T14:59:20.473Z,4.93
2017-08-01T15:01:46.751Z,4.90
2017-08-01T15:04:13.086Z,5.40
2017-08-01T15:06:39.375Z,4.60
2017-08-01T15:09:05.694Z,4.90
2017-08-01T15:11:31.972Z,5.00
2017-08-01T15:13:58.264Z,5.13
2017-08-01T15:16:24.568Z,4.50
2017-08-01T15:18:50.864Z,4.03
2017-08-01T15:21:17.911Z,4.80
2017-08-01T15:23:44.946Z,5.13
2017-08-01T15:26:11.336Z,5.10
2017-08-01T15:28:37.668Z,4.70
2017-08-01T15:31:03.939Z,5.57
2017-08-01T15:33:30.256Z,5.50
2017-08-01T15:35:56.540Z,4.97
2017-08-01T15:38:22.817Z,6.23
2017-08-01T15:40:49.102Z,5.93
2017-08-01T15:43:15.372Z,5.60
2017-08-01T15:45:41.709Z,6.27
2017-08-01T15:48:07.973Z,5.60
2017-08-01T15:50:35.008Z,6.30
2017-08-01T15:53:02.033Z,6.00
2017-08-01T15:55:28.316Z,6.50
2017-08-01T15:57:54.555Z,7.10
2017-08-01T16:00:20.851Z,5.73
2017-08-01T16:02:47.120Z,6.83
2017-08-01T16:05:13.435Z,6.70
2017-08-01T16:07:39.727Z,6.97
2017-08-01T16:10:06.790Z,7.43
2017-08-01T16:12:33.059Z,7.40
2017-08-01T16:14:59.339Z,7.17
2017-08-01T16:17:25.640Z,6.87
2017-08-01T16:19:51.951Z,7.03
2017-08-01T16:22:18.259Z,6.27
2017-08-01T16:24:44.544Z,6.53
2017-08-01T16:27:10.828Z,7.37
2017-08-01T16:29:37.122Z,6.87
2017-08-01T16:32:03.388Z,7.37
2017-08-01T16:34:29.654Z,6.33
2017-08-01T16:36:55.975Z,6.83
2017-08-01T16:39:22.253Z,7.10
2017-08-01T16:41:48.523Z,7.47
2017-08-01T16:44:14.802Z,6.97
2017-08-01T16:46:41.795Z,7.07
2017-08-01T16:49:08.065Z,6.70
2017-08-01T16:51:34.343Z,7.80
2017-08-01T16:54:00.623Z,7.50
2017-08-01T16:56:27.637Z,8.57
2017-08-01T16:58:53.908Z,8.83
2017-08-01T17:01:20.154Z,10.60
2017-08-01T17:03:46.458Z,11.90
2017-08-01T17:06:13.490Z,12.03
2017-08-01T17:08:39.795Z,11.63
2017-08-01T17:11:06.065Z,9.70
2017-08-01T17:13:32.367Z,8.40
2017-08-01T17:15:59.406Z,10.20
2017-08-01T17:18:25.682Z,10.70
2017-08-01T17:20:51.978Z,10.87
2017-08-01T17:23:18.239Z,11.50
2017-08-01T17:25:44.552Z,11.17
2017-08-01T17:28:11.574Z,11.37
2017-08-01T17:30:37.845Z,12.13
2017-08-01T17:33:04.114Z,11.30
2017-08-01T17:35:30.463Z,12.00
2017-08-01T17:37:56.729Z,13.10
2017-08-01T17:40:23.012Z,12.73
2017-08-01T17:42:49.274Z,12.47
2017-08-01T17:45:16.286Z,11.33
2017-08-01T17:47:42.541Z,12.60
2017-08-01T17:50:08.820Z,11.10
2017-08-01T17:52:35.099Z,11.50
2017-08-01T17:55:01.382Z,11.27
2017-08-01T17:57:27.666Z,12.07
2017-08-01T17:59:54.704Z,11.87
2017-08-01T18:02:20.980Z,12.77
2017-08-01T18:04:47.258Z,12.00
2017-08-01T18:07:13.548Z,11.03
2017-08-01T18:09:39.800Z,10.73
2017-08-01T18:12:06.059Z,11.20
2017-08-01T18:14:33.088Z,10.90
2017-08-01T18:16:59.345Z,10.37
2017-08-01T18:19:25.660Z,12.33
2017-08-01T18:21:51.943Z,11.17
2017-08-01T18:24:18.263Z,12.53
2017-08-01T18:26:44.553Z,10.40
2017-08-01T18:29:11.589Z,10.07
2017-08-01T18:31:37.988Z,11.47
2017-08-01T18:34:04.291Z,11.47
2017-08-01T18:36:30.542Z,12.73
2017-08-01T18:38:56.836Z,9.77
2017-08-01T18:41:23.103Z,10.03
2017-08-01T18:43:49.374Z,10.70
2017-08-01T18:46:16.403Z,10.53
2017-08-01T18:48:42.662Z,11.10
2017-08-01T18:51:08.957Z,10.53
2017-08-01T18:53:35.220Z,10.50
2017-08-01T18:56:02.269Z,10.83
2017-08-01T18:58:29.304Z,10.43
2017-08-01T19:00:57.022Z,11.50
2017-08-01T19:03:24.086Z,11.27
2017-08-01T19:05:50.420Z,11.50
2017-08-01T19:08:16.706Z,11.43
2017-08-01T19:10:43.028Z,10.60
2017-08-01T19:13:09.308Z,11.20
2017-08-01T19:15:36.492Z,11.10
2017-08-01T19:18:02.816Z,11.10
2017-08-01T19:20:29.181Z,10.70
2017-08-01T19:22:55.531Z,12.23
2017-08-01T19:25:21.885Z,12.27
2017-08-01T19:27:49.148Z,12.80
2017-08-01T19:30:16.660Z,12.37
2017-08-01T19:32:43.245Z,11.57
2017-08-01T19:35:09.543Z,12.47
2017-08-01T19:37:35.824Z,13.00
2017-08-01T19:40:02.170Z,13.23
2017-08-01T19:42:28.428Z,11.00
2017-08-01T19:44:54.726Z,12.43
2017-08-01T19:47:21.116Z,12.63
2017-08-01T19:49:47.418Z,12.17
2017-08-01T19:52:13.789Z,11.70
2017-08-01T19:54:40.156Z,11.87
2017-08-01T19:57:06.444Z,13.30
2017-08-01T19:59:34.398Z,13.17
2017-08-01T20:02:00.725Z,15.83
2017-08-01T20:04:27.042Z,14.60
2017-08-01T20:06:53.318Z,13.50
2017-08-01T20:09:20.261Z,13.07
2017-08-01T20:11:46.578Z,12.63
2017-08-01T20:14:14.523Z,13.30
2017-08-01T20:16:41.084Z,14.37
2017-08-01T20:19:08.230Z,13.83
2017-08-01T20:21:34.558Z,16.33
2017-08-01T20:24:00.872Z,15.97
2017-08-01T20:26:27.170Z,14.87
2017-08-01T20:28:53.500Z,15.50
2017-08-01T20:31:19.796Z,16.37
2017-08-01T20:33:46.092Z,16.13
2017-08-01T20:36:12.394Z,17.40
2017-08-01T20:38:39.390Z,16.27
2017-08-01T20:41:05.692Z,17.03
2017-08-01T20:43:31.998Z,17.00
2017-08-01T20:45:58.304Z,17.10
2017-08-01T20:48:24.601Z,18.80
2017-08-01T20:50:50.886Z,17.13
2017-08-01T20:53:17.187Z,17.27
2017-08-01T20:55:43.538Z,16.70
2017-08-01T20:58:09.887Z,18.60
2017-08-01T21:00:36.143Z,16.70
2017-08-01T21:03:02.448Z,16.20
2017-08-01T21:05:28.708Z,14.93
2017-08-01T21:07:55.063Z,15.97
2017-08-01T21:10:21.327Z,17.47
2017-08-01T21:12:47.618Z,14.80
2017-08-01T21:15:14.646Z,14.80
2017-08-01T21:17:40.944Z,16.43
2017-08-01T21:20:07.226Z,18.10
2017-08-01T21:22:34.223Z,16.70
2017-08-01T21:25:00.516Z,16.67
2017-08-01T21:27:26.789Z,15.53
2017-08-01T21:29:53.055Z,15.93
2017-08-01T21:32:20.059Z,17.73
2017-08-01T21:34:46.346Z,18.03
2017-08-01T21:37:12.649Z,17.50
2017-08-01T21:39:38.952Z,17.80
2017-08-01T21:42:05.222Z,17.60
2017-08-01T21:44:31.484Z,19.40
2017-08-01T21:46:57.755Z,18.40
2017-08-01T21:49:24.010Z,18.00
2017-08-01T21:51:51.029Z,18.57
2017-08-01T21:54:17.302Z,16.50
2017-08-01T21:56:43.568Z,19.07
2017-08-01T21:59:09.843Z,18.27
2017-08-01T22:01:36.855Z,17.30
2017-08-01T22:04:03.933Z,18.60
2017-08-01T22:06:30.939Z,17.50
2017-08-01T22:08:57.204Z,17.53
2017-08-01T22:11:24.240Z,17.50
2017-08-01T22:13:51.272Z,18.30
2017-08-01T22:16:17.548Z,17.53
2017-08-01T22:18:43.826Z,18.57
2017-08-01T22:21:10.085Z,20.53
2017-08-01T22:23:37.098Z,20.10
2017-08-01T22:26:03.361Z,21.80
2017-08-01T22:28:30.382Z,20.37
2017-08-01T22:30:56.636Z,21.10
2017-08-01T22:33:23.713Z,22.10
2017-08-01T22:35:49.984Z,22.30
2017-08-01T22:38:16.255Z,21.67
2017-08-01T22:40:49.565Z,21.30
2017-08-01T22:43:15.845Z,23.10
2017-08-01T22:45:42.849Z,21.43
2017-08-01T22:48:09.122Z,23.07
2017-08-01T22:50:35.405Z,24.03
2017-08-01T22:53:01.700Z,23.93
2017-08-01T22:55:28.718Z,23.10
2017-08-01T22:57:54.975Z,23.60
2017-08-01T23:00:21.975Z,25.30
2017-08-01T23:02:48.257Z,24.97
2017-08-01T23:05:15.273Z,27.27
2017-08-01T23:07:41.568Z,27.20
2017-08-01T23:10:07.925Z,24.63
2017-08-01T23:12:34.197Z,26.80
2017-08-01T23:15:00.481Z,26.70
2017-08-01T23:17:26.769Z,27.90
2017-08-01T23:19:53.020Z,28.57
2017-08-01T23:22:19.292Z,28.00
2017-08-01T23:24:45.587Z,27.57
2017-08-01T23:27:11.862Z,25.57
2017-08-01T23:29:38.860Z,27.17
2017-08-01T23:32:05.124Z,27.80
2017-08-01T23:34:31.382Z,25.87
2017-08-01T23:36:57.724Z,25.40
2017-08-01T23:39:23.981Z,23.20
2017-08-01T23:41:50.252Z,25.43
2017-08-01T23:44:16.546Z,23.73
2017-08-01T23:46:42.786Z,22.07
2017-08-01T23:49:09.056Z,24.23
2017-08-01T23:51:35.338Z,23.97
2017-08-01T23:54:01.608Z,23.43
2017-08-01T23:56:27.886Z,24.00
2017-08-01T23:58:54.150Z,24.80
